KADW/ADW METAR and TAF weather

Enter ICAO airport designator
Station Type Date Time Source
KADW METAR 2021/09/28 03:56 UTC NOAA

KADW 280356Z AUTO 20011KT 10SM CLR 20/12 A2990 RMK AO2 SLP130 T02020119 $


Station Type Date Time Source
KADW Decoded METAR 2021/09/28 03:56 UTC NOAA

Camp Springs / Andrews Air Force Base, MD, United States (KADW) 38-49N 076-51W 88M
Sep 27, 2021 - 11:56 PM EDT / 2021.09.28 0356 UTC
Wind: from the SSW (200 degrees) at 13 MPH (11 KT):0
Visibility: 10 mile(s):0
Sky conditions: clear
Temperature: 68.4 F (20.2 C)
Dew Point: 53.4 F (11.9 C)
Relative Humidity: 58%
Pressure (altimeter): 29.9 in. Hg (1012 hPa)
ob: KADW 280356Z AUTO 20011KT 10SM CLR 20/12 A2990 RMK AO2 SLP130 T02020119
cycle: 4

Station Type Date Time Source
KADW TAF 2021/09/28 01:03 UTC NOAA

TAF TAF KADW 280100Z 2801/2907 22008KT 9999 FEW150 520052 QNH2991INS
BECMG 2807/2808 25006KT 9999 SCT150 QNH2989INS
BECMG 2817/2818 26012KT 9999 -SHRA VCTS SCT050CB QNH2984INS
TEMPO 2819/2823 28015G25KT 8000 -TSRA BKN040CB OVC050
BECMG 2823/2824 VRB06KT 9999 NSW BKN040 QNH2987INS TX27/2819Z TN16/2810Z

Example: see airport list